Erie, Minnesota
Current Conditions -  °F | °C
As of 5:35 PM on Saturday 25 Oct 2014 (Local Time) from KTVF Reporting Station
Clear Clear  
Wind Chill: 55°   Ceiling: Unl
Heat Index: 55°   Visibility: 10mi
Dew Point: 23°   Wind: 10mph
Humidity: 28%   Direction: 300°WNW
Pressure: 30.03"   Gusts: NA
Location:  48.0638°N, 95.6851°W
Report Text: KTVF 252235Z AUTO 30009KT 10SM CLR 13/M05 A3003 RMK AO1
Loading
Personal Weather Stations






























Interactive Weather Map
Tropical Storm Tracking
New forecast layout! Learn more

10-Day Weather Forecast

Advertisements
Track Severe Weather on mobile